sensor_id;sensor_type;location;lat;lon;timestamp;pressure;altitude;pressure_sealevel;temperature;humidity
76352;BME280;65179;47.786;19.138;2023-04-03T00:00:45;100231.25;;;8.72;59.39
76352;BME280;65179;47.786;19.138;2023-04-03T00:03:10;100221.28;;;8.66;59.59
76352;BME280;65179;47.786;19.138;2023-04-03T00:05:36;100227.31;;;8.68;59.60
76352;BME280;65179;47.786;19.138;2023-04-03T00:08:01;100230.03;;;8.68;59.70
76352;BME280;65179;47.786;19.138;2023-04-03T00:10:28;100227.69;;;8.78;59.30
76352;BME280;65179;47.786;19.138;2023-04-03T00:12:53;100226.25;;;8.69;59.63
76352;BME280;65179;47.786;19.138;2023-04-03T00:15:19;100220.88;;;8.50;59.40
76352;BME280;65179;47.786;19.138;2023-04-03T00:17:44;100221.47;;;8.58;59.52
76352;BME280;65179;47.786;19.138;2023-04-03T00:20:10;100224.59;;;8.68;59.27
76352;BME280;65179;47.786;19.138;2023-04-03T00:22:36;100232.12;;;8.66;59.16
76352;BME280;65179;47.786;19.138;2023-04-03T00:25:02;100222.94;;;8.61;58.93
76352;BME280;65179;47.786;19.138;2023-04-03T00:27:27;100236.47;;;8.67;58.92
76352;BME280;65179;47.786;19.138;2023-04-03T00:29:53;100240.03;;;8.55;58.68
76352;BME280;65179;47.786;19.138;2023-04-03T00:32:18;100239.41;;;8.53;59.08
76352;BME280;65179;47.786;19.138;2023-04-03T00:34:44;100245.00;;;8.64;58.81
76352;BME280;65179;47.786;19.138;2023-04-03T00:37:09;100250.41;;;8.71;58.73
76352;BME280;65179;47.786;19.138;2023-04-03T00:39:35;100245.44;;;8.61;58.88
76352;BME280;65179;47.786;19.138;2023-04-03T00:42:00;100250.00;;;8.74;58.91
76352;BME280;65179;47.786;19.138;2023-04-03T00:46:57;100246.44;;;8.80;59.11
76352;BME280;65179;47.786;19.138;2023-04-03T00:49:23;100250.37;;;8.77;58.73
76352;BME280;65179;47.786;19.138;2023-04-03T00:51:48;100252.09;;;8.65;58.79
76352;BME280;65179;47.786;19.138;2023-04-03T00:54:14;100242.53;;;8.50;59.22
76352;BME280;65179;47.786;19.138;2023-04-03T00:56:40;100254.19;;;8.50;59.37
76352;BME280;65179;47.786;19.138;2023-04-03T00:59:10;100250.66;;;8.43;59.46
76352;BME280;65179;47.786;19.138;2023-04-03T01:01:37;100252.34;;;8.44;59.58
76352;BME280;65179;47.786;19.138;2023-04-03T01:04:04;100250.87;;;8.42;59.68
76352;BME280;65179;47.786;19.138;2023-04-03T01:06:34;100256.06;;;8.56;59.49
76352;BME280;65179;47.786;19.138;2023-04-03T01:09:00;100257.13;;;8.29;59.48
76352;BME280;65179;47.786;19.138;2023-04-03T01:11:26;100251.72;;;8.42;59.50
76352;BME280;65179;47.786;19.138;2023-04-03T01:13:53;100258.78;;;8.43;59.36
76352;BME280;65179;47.786;19.138;2023-04-03T01:16:18;100256.69;;;8.45;58.68
76352;BME280;65179;47.786;19.138;2023-04-03T01:18:45;100257.94;;;8.43;59.21
76352;BME280;65179;47.786;19.138;2023-04-03T01:26:04;100257.13;;;8.55;59.06
76352;BME280;65179;47.786;19.138;2023-04-03T01:28:33;100253.78;;;8.47;59.12
76352;BME280;65179;47.786;19.138;2023-04-03T01:33:55;100268.75;;;8.49;58.72
76352;BME280;65179;47.786;19.138;2023-04-03T01:36:24;100256.28;;;8.42;57.08
76352;BME280;65179;47.786;19.138;2023-04-03T01:38:51;100262.31;;;8.37;56.31
76352;BME280;65179;47.786;19.138;2023-04-03T01:41:17;100258.78;;;8.36;55.26
76352;BME280;65179;47.786;19.138;2023-04-03T01:43:42;100253.78;;;8.40;54.85
76352;BME280;65179;47.786;19.138;2023-04-03T01:46:08;100254.81;;;8.39;55.88
76352;BME280;65179;47.786;19.138;2023-04-03T01:48:34;100264.63;;;8.33;54.54
76352;BME280;65179;47.786;19.138;2023-04-03T01:50:59;100261.25;;;8.25;54.17
76352;BME280;65179;47.786;19.138;2023-04-03T01:53:25;100260.19;;;8.13;54.57
76352;BME280;65179;47.786;19.138;2023-04-03T01:55:51;100255.22;;;8.10;54.17
76352;BME280;65179;47.786;19.138;2023-04-03T01:58:16;100255.84;;;8.05;53.63
76352;BME280;65179;47.786;19.138;2023-04-03T02:00:42;100256.03;;;8.04;54.35
76352;BME280;65179;47.786;19.138;2023-04-03T02:03:07;100262.50;;;8.09;55.91
76352;BME280;65179;47.786;19.138;2023-04-03T02:05:33;100272.47;;;7.96;56.65
76352;BME280;65179;47.786;19.138;2023-04-03T02:07:58;100270.34;;;7.85;57.42
76352;BME280;65179;47.786;19.138;2023-04-03T02:10:24;100267.84;;;7.77;57.68
76352;BME280;65179;47.786;19.138;2023-04-03T02:12:49;100263.91;;;7.73;58.30
76352;BME280;65179;47.786;19.138;2023-04-03T02:15:16;100272.41;;;7.70;58.55
76352;BME280;65179;47.786;19.138;2023-04-03T02:17:41;100272.84;;;7.73;58.73
76352;BME280;65179;47.786;19.138;2023-04-03T02:20:07;100277.41;;;7.66;58.58
76352;BME280;65179;47.786;19.138;2023-04-03T02:22:33;100270.13;;;7.60;58.40
76352;BME280;65179;47.786;19.138;2023-04-03T02:24:59;100271.37;;;7.64;58.82
76352;BME280;65179;47.786;19.138;2023-04-03T02:27:24;100274.69;;;7.66;58.55
76352;BME280;65179;47.786;19.138;2023-04-03T02:29:49;100276.16;;;7.69;58.85
76352;BME280;65179;47.786;19.138;2023-04-03T02:32:15;100272.19;;;7.71;58.86
76352;BME280;65179;47.786;19.138;2023-04-03T02:34:40;100272.41;;;7.70;58.91
76352;BME280;65179;47.786;19.138;2023-04-03T02:37:06;100268.66;;;7.64;59.15
76352;BME280;65179;47.786;19.138;2023-04-03T02:39:31;100273.84;;;7.65;59.54
76352;BME280;65179;47.786;19.138;2023-04-03T02:41:57;100264.88;;;7.58;59.60
76352;BME280;65179;47.786;19.138;2023-04-03T02:44:22;100272.81;;;7.60;59.45
76352;BME280;65179;47.786;19.138;2023-04-03T02:46:49;100268.19;;;7.54;59.67
76352;BME280;65179;47.786;19.138;2023-04-03T02:49:14;100277.53;;;7.51;59.98
76352;BME280;65179;47.786;19.138;2023-04-03T02:51:40;100280.47;;;7.56;59.82
76352;BME280;65179;47.786;19.138;2023-04-03T02:54:06;100278.94;;;7.34;60.23
76352;BME280;65179;47.786;19.138;2023-04-03T02:56:31;100281.44;;;7.29;60.14
76352;BME280;65179;47.786;19.138;2023-04-03T02:58:57;100279.12;;;7.26;60.22
76352;BME280;65179;47.786;19.138;2023-04-03T03:01:22;100276.03;;;7.29;60.39
76352;BME280;65179;47.786;19.138;2023-04-03T03:03:48;100271.59;;;7.15;59.66
76352;BME280;65179;47.786;19.138;2023-04-03T03:06:15;100276.12;;;7.02;59.63
76352;BME280;65179;47.786;19.138;2023-04-03T03:08:42;100275.69;;;7.05;59.96
76352;BME280;65179;47.786;19.138;2023-04-03T03:11:07;100275.91;;;7.03;59.68
76352;BME280;65179;47.786;19.138;2023-04-03T03:13:33;100280.03;;;6.99;59.54
76352;BME280;65179;47.786;19.138;2023-04-03T03:15:59;100278.53;;;6.90;60.18
76352;BME280;65179;47.786;19.138;2023-04-03T03:18:25;100287.59;;;6.82;60.70
76352;BME280;65179;47.786;19.138;2023-04-03T03:20:52;100290.75;;;6.86;60.38
76352;BME280;65179;47.786;19.138;2023-04-03T03:23:18;100289.72;;;6.87;60.16
76352;BME280;65179;47.786;19.138;2023-04-03T03:25:43;100288.78;;;6.67;60.51
76352;BME280;65179;47.786;19.138;2023-04-03T03:28:08;100291.09;;;6.76;60.37
76352;BME280;65179;47.786;19.138;2023-04-03T03:30:34;100287.97;;;6.73;60.48
76352;BME280;65179;47.786;19.138;2023-04-03T03:33:00;100289.84;;;6.72;60.45
76352;BME280;65179;47.786;19.138;2023-04-03T03:35:26;100291.00;;;6.63;60.55
76352;BME280;65179;47.786;19.138;2023-04-03T03:37:51;100284.69;;;6.50;60.53
76352;BME280;65179;47.786;19.138;2023-04-03T03:40:16;100284.78;;;6.63;60.68
76352;BME280;65179;47.786;19.138;2023-04-03T03:42:42;100282.06;;;6.63;60.40
76352;BME280;65179;47.786;19.138;2023-04-03T03:45:08;100282.06;;;6.63;60.72
76352;BME280;65179;47.786;19.138;2023-04-03T03:47:34;100281.94;;;6.71;60.46
76352;BME280;65179;47.786;19.138;2023-04-03T03:49:59;100285.63;;;6.63;60.61
76352;BME280;65179;47.786;19.138;2023-04-03T03:52:25;100277.87;;;6.54;60.84
76352;BME280;65179;47.786;19.138;2023-04-03T03:54:51;100276.75;;;6.42;60.86
76352;BME280;65179;47.786;19.138;2023-04-03T03:57:16;100285.81;;;6.34;61.25
76352;BME280;65179;47.786;19.138;2023-04-03T03:59:42;100287.06;;;6.32;61.55
76352;BME280;65179;47.786;19.138;2023-04-03T04:02:09;100294.25;;;6.25;61.37
76352;BME280;65179;47.786;19.138;2023-04-03T04:04:34;100288.78;;;6.18;61.78
76352;BME280;65179;47.786;19.138;2023-04-03T04:06:59;100290.28;;;6.21;62.13
76352;BME280;65179;47.786;19.138;2023-04-03T04:09:28;100288.09;;;6.09;62.09
76352;BME280;65179;47.786;19.138;2023-04-03T04:11:53;100300.03;;;6.00;62.66
76352;BME280;65179;47.786;19.138;2023-04-03T04:14:19;100300.03;;;6.00;62.23
76352;BME280;65179;47.786;19.138;2023-04-03T04:16:46;100298.63;;;6.04;62.33
76352;BME280;65179;47.786;19.138;2023-04-03T04:19:12;100300.66;;;6.02;62.23
76352;BME280;65179;47.786;19.138;2023-04-03T04:21:38;100299.47;;;5.84;62.60
76352;BME280;65179;47.786;19.138;2023-04-03T04:24:04;100288.94;;;5.74;62.81
76352;BME280;65179;47.786;19.138;2023-04-03T04:26:30;100300.69;;;5.67;63.31
76352;BME280;65179;47.786;19.138;2023-04-03T04:28:55;100297.31;;;5.79;63.09
76352;BME280;65179;47.786;19.138;2023-04-03T04:31:21;100300.50;;;5.68;63.27
76352;BME280;65179;47.786;19.138;2023-04-03T04:33:46;100296.59;;;5.71;63.09
76352;BME280;65179;47.786;19.138;2023-04-03T04:36:12;100300.50;;;5.68;63.09
76352;BME280;65179;47.786;19.138;2023-04-03T04:38:37;100296.66;;;5.56;63.25
76352;BME280;65179;47.786;19.138;2023-04-03T04:41:03;100291.34;;;5.63;63.13
76352;BME280;65179;47.786;19.138;2023-04-03T04:43:29;100301.91;;;5.64;63.50
76352;BME280;65179;47.786;19.138;2023-04-03T04:46:02;100307.50;;;5.63;63.16
76352;BME280;65179;47.786;19.138;2023-04-03T04:48:28;100311.63;;;5.65;63.83
76352;BME280;65179;47.786;19.138;2023-04-03T04:50:53;100317.03;;;5.65;63.30
76352;BME280;65179;47.786;19.138;2023-04-03T04:53:19;100323.31;;;5.51;63.56
76352;BME280;65179;47.786;19.138;2023-04-03T04:55:44;100307.41;;;5.56;63.48
76352;BME280;65179;47.786;19.138;2023-04-03T04:58:10;100317.91;;;5.51;63.64
76352;BME280;65179;47.786;19.138;2023-04-03T05:00:35;100320.34;;;5.46;63.68
76352;BME280;65179;47.786;19.138;2023-04-03T05:03:01;100331.81;;;5.55;63.51
76352;BME280;65179;47.786;19.138;2023-04-03T05:05:26;100333.22;;;5.51;63.64
76352;BME280;65179;47.786;19.138;2023-04-03T05:07:51;100336.25;;;5.41;63.67
76352;BME280;65179;47.786;19.138;2023-04-03T05:10:17;100332.91;;;5.39;63.72
76352;BME280;65179;47.786;19.138;2023-04-03T05:12:42;100337.91;;;5.42;63.91
76352;BME280;65179;47.786;19.138;2023-04-03T05:15:08;100336.69;;;5.45;63.63
76352;BME280;65179;47.786;19.138;2023-04-03T05:17:34;100335.41;;;5.41;63.74
76352;BME280;65179;47.786;19.138;2023-04-03T05:19:59;100334.28;;;5.35;63.91
76352;BME280;65179;47.786;19.138;2023-04-03T05:22:24;100339.00;;;5.33;63.78
76352;BME280;65179;47.786;19.138;2023-04-03T05:24:50;100340.97;;;5.39;63.90
76352;BME280;65179;47.786;19.138;2023-04-03T05:27:15;100341.16;;;5.37;64.04
76352;BME280;65179;47.786;19.138;2023-04-03T05:29:42;100343.75;;;5.46;63.93
76352;BME280;65179;47.786;19.138;2023-04-03T05:32:09;100347.81;;;5.42;63.89
76352;BME280;65179;47.786;19.138;2023-04-03T05:34:35;100346.16;;;5.41;63.78
76352;BME280;65179;47.786;19.138;2023-04-03T05:37:01;100341.63;;;5.41;63.85
76352;BME280;65179;47.786;19.138;2023-04-03T05:39:28;100344.84;;;5.51;63.80
76352;BME280;65179;47.786;19.138;2023-04-03T05:41:54;100357.19;;;5.60;63.89
76352;BME280;65179;47.786;19.138;2023-04-03T05:44:19;100349.34;;;5.65;63.87
76352;BME280;65179;47.786;19.138;2023-04-03T05:46:45;100342.19;;;5.72;64.03
76352;BME280;65179;47.786;19.138;2023-04-03T05:49:10;100351.41;;;5.63;63.71
76352;BME280;65179;47.786;19.138;2023-04-03T05:51:36;100350.41;;;5.64;64.08
76352;BME280;65179;47.786;19.138;2023-04-03T05:54:26;100355.31;;;5.75;63.99
76352;BME280;65179;47.786;19.138;2023-04-03T05:56:52;100349.09;;;6.10;63.46
76352;BME280;65179;47.786;19.138;2023-04-03T05:59:18;100330.56;;;6.29;63.12
76352;BME280;65179;47.786;19.138;2023-04-03T06:01:45;100340.53;;;6.49;61.70
76352;BME280;65179;47.786;19.138;2023-04-03T06:04:11;100344.66;;;6.73;61.27
76352;BME280;65179;47.786;19.138;2023-04-03T06:06:51;100350.53;;;6.83;60.40
76352;BME280;65179;47.786;19.138;2023-04-03T06:09:18;100340.91;;;7.02;58.73
76352;BME280;65179;47.786;19.138;2023-04-03T06:11:44;100357.88;;;7.23;58.30
76352;BME280;65179;47.786;19.138;2023-04-03T06:14:10;100350.00;;;7.35;57.82
76352;BME280;65179;47.786;19.138;2023-04-03T06:16:36;100355.03;;;7.38;56.97
76352;BME280;65179;47.786;19.138;2023-04-03T06:19:02;100358.41;;;7.46;57.07
76352;BME280;65179;47.786;19.138;2023-04-03T06:21:27;100356.25;;;7.35;56.19
76352;BME280;65179;47.786;19.138;2023-04-03T06:23:53;100359.59;;;7.37;56.60
76352;BME280;65179;47.786;19.138;2023-04-03T06:26:18;100361.72;;;7.48;55.57
76352;BME280;65179;47.786;19.138;2023-04-03T06:28:44;100365.47;;;7.54;54.06
76352;BME280;65179;47.786;19.138;2023-04-03T06:31:09;100365.50;;;7.60;54.55
76352;BME280;65179;47.786;19.138;2023-04-03T06:33:35;100370.16;;;7.73;54.49
76352;BME280;65179;47.786;19.138;2023-04-03T06:36:04;100374.53;;;7.81;52.98
76352;BME280;65179;47.786;19.138;2023-04-03T06:38:32;100379.31;;;7.79;53.78
76352;BME280;65179;47.786;19.138;2023-04-03T06:40:58;100371.19;;;7.72;53.04
76352;BME280;65179;47.786;19.138;2023-04-03T06:43:23;100377.62;;;7.78;53.82
76352;BME280;65179;47.786;19.138;2023-04-03T06:45:50;100377.25;;;7.81;53.35
76352;BME280;65179;47.786;19.138;2023-04-03T06:48:15;100381.00;;;7.86;53.28
76352;BME280;65179;47.786;19.138;2023-04-03T06:50:41;100383.03;;;7.78;53.04
76352;BME280;65179;47.786;19.138;2023-04-03T06:53:07;100372.59;;;7.61;51.71
76352;BME280;65179;47.786;19.138;2023-04-03T06:55:33;100384.31;;;7.75;53.24
76352;BME280;65179;47.786;19.138;2023-04-03T06:57:58;100391.81;;;7.93;53.00
76352;BME280;65179;47.786;19.138;2023-04-03T07:00:24;100398.72;;;8.02;52.21
76352;BME280;65179;47.786;19.138;2023-04-03T07:02:50;100385.81;;;7.97;51.52
76352;BME280;65179;47.786;19.138;2023-04-03T07:05:15;100389.59;;;8.03;52.12
76352;BME280;65179;47.786;19.138;2023-04-03T07:07:41;100397.28;;;8.06;52.19
76352;BME280;65179;47.786;19.138;2023-04-03T07:10:07;100398.16;;;8.13;52.46
76352;BME280;65179;47.786;19.138;2023-04-03T07:12:33;100395.25;;;8.21;52.10
76352;BME280;65179;47.786;19.138;2023-04-03T07:14:59;100393.66;;;8.33;52.23
76352;BME280;65179;47.786;19.138;2023-04-03T07:17:24;100398.44;;;8.31;51.44
76352;BME280;65179;47.786;19.138;2023-04-03T07:19:51;100399.91;;;8.27;51.34
76352;BME280;65179;47.786;19.138;2023-04-03T07:22:17;100393.63;;;8.26;51.10
76352;BME280;65179;47.786;19.138;2023-04-03T07:24:42;100400.31;;;8.37;51.28
76352;BME280;65179;47.786;19.138;2023-04-03T07:27:08;100395.25;;;8.21;51.93
76352;BME280;65179;47.786;19.138;2023-04-03T07:29:34;100401.53;;;8.28;52.03
76352;BME280;65179;47.786;19.138;2023-04-03T07:32:01;100401.16;;;8.44;51.46
76352;BME280;65179;47.786;19.138;2023-04-03T07:34:27;100397.03;;;8.61;50.40
76352;BME280;65179;47.786;19.138;2023-04-03T07:36:52;100387.44;;;8.78;50.17
76352;BME280;65179;47.786;19.138;2023-04-03T07:39:18;100397.84;;;9.01;50.53
76352;BME280;65179;47.786;19.138;2023-04-03T07:41:44;100402.00;;;9.16;48.81
76352;BME280;65179;47.786;19.138;2023-04-03T07:44:09;100399.91;;;9.25;48.77
76352;BME280;65179;47.786;19.138;2023-04-03T07:46:36;100398.81;;;9.46;48.79
76352;BME280;65179;47.786;19.138;2023-04-03T07:49:01;100399.22;;;9.49;49.05
76352;BME280;65179;47.786;19.138;2023-04-03T07:51:27;100398.38;;;9.49;48.54
76352;BME280;65179;47.786;19.138;2023-04-03T07:53:53;100401.47;;;9.65;48.50
76352;BME280;65179;47.786;19.138;2023-04-03T07:56:19;100395.53;;;9.88;48.54
76352;BME280;65179;47.786;19.138;2023-04-03T07:58:45;100394.81;;;10.06;48.11
76352;BME280;65179;47.786;19.138;2023-04-03T08:01:12;100389.94;;;10.27;47.73
76352;BME280;65179;47.786;19.138;2023-04-03T08:03:39;100402.87;;;10.25;46.14
76352;BME280;65179;47.786;19.138;2023-04-03T08:06:07;100396.34;;;10.39;44.84
76352;BME280;65179;47.786;19.138;2023-04-03T08:08:35;100396.37;;;10.33;44.75
76352;BME280;65179;47.786;19.138;2023-04-03T08:11:02;100396.25;;;10.21;45.35
76352;BME280;65179;47.786;19.138;2023-04-03T08:13:31;100409.19;;;10.19;45.09
76352;BME280;65179;47.786;19.138;2023-04-03T08:16:06;100396.69;;;10.05;45.46
76352;BME280;65179;47.786;19.138;2023-04-03T08:18:33;100389.94;;;10.27;43.71
76352;BME280;65179;47.786;19.138;2023-04-03T08:20:59;100395.09;;;10.66;42.77
76352;BME280;65179;47.786;19.138;2023-04-03T08:23:26;100401.16;;;10.93;43.14
76352;BME280;65179;47.786;19.138;2023-04-03T08:25:53;100394.66;;;10.70;43.06
76352;BME280;65179;47.786;19.138;2023-04-03T08:28:19;100395.75;;;11.11;42.82
76352;BME280;65179;47.786;19.138;2023-04-03T08:30:49;100392.03;;;11.49;41.53
76352;BME280;65179;47.786;19.138;2023-04-03T08:33:16;100396.56;;;11.36;41.53
76352;BME280;65179;47.786;19.138;2023-04-03T08:35:43;100385.81;;;11.41;41.61
76352;BME280;65179;47.786;19.138;2023-04-03T08:38:10;100378.06;;;11.45;41.12
76352;BME280;65179;47.786;19.138;2023-04-03T08:40:37;100378.09;;;11.81;40.76
76352;BME280;65179;47.786;19.138;2023-04-03T08:45:52;100390.91;;;11.56;41.65
76352;BME280;65179;47.786;19.138;2023-04-03T08:48:41;100388.25;;;11.31;41.09
76352;BME280;65179;47.786;19.138;2023-04-03T08:51:17;100391.88;;;11.01;41.87
76352;BME280;65179;47.786;19.138;2023-04-03T08:54:00;100393.16;;;10.98;42.31
76352;BME280;65179;47.786;19.138;2023-04-03T08:56:31;100392.28;;;10.80;42.26
76352;BME280;65179;47.786;19.138;2023-04-03T08:59:06;100397.59;;;10.68;42.67
76352;BME280;65179;47.786;19.138;2023-04-03T09:01:39;100396.78;;;10.68;42.19
76352;BME280;65179;47.786;19.138;2023-04-03T09:04:12;100388.78;;;10.73;42.27
76352;BME280;65179;47.786;19.138;2023-04-03T09:06:44;100393.41;;;10.65;42.14
76352;BME280;65179;47.786;19.138;2023-04-03T09:11:58;100385.34;;;10.84;40.64
76352;BME280;65179;47.786;19.138;2023-04-03T09:14:43;100393.56;;;10.77;41.28
76352;BME280;65179;47.786;19.138;2023-04-03T09:17:21;100396.53;;;10.69;41.17
76352;BME280;65179;47.786;19.138;2023-04-03T09:19:58;100398.09;;;10.58;41.54
76352;BME280;65179;47.786;19.138;2023-04-03T09:22:32;100397.25;;;10.58;41.85
76352;BME280;65179;47.786;19.138;2023-04-03T09:25:29;100401.47;;;10.54;41.32
76352;BME280;65179;47.786;19.138;2023-04-03T09:28:02;100407.00;;;10.65;41.56
76352;BME280;65179;47.786;19.138;2023-04-03T09:30:29;100401.75;;;10.71;40.82
76352;BME280;65179;47.786;19.138;2023-04-03T09:32:57;100404.66;;;10.76;41.20
76352;BME280;65179;47.786;19.138;2023-04-03T09:35:30;100399.91;;;10.64;41.08
76352;BME280;65179;47.786;19.138;2023-04-03T09:40:34;100410.31;;;10.74;41.04
76352;BME280;65179;47.786;19.138;2023-04-03T09:43:30;100402.53;;;10.78;41.21
76352;BME280;65179;47.786;19.138;2023-04-03T09:46:20;100409.34;;;10.62;40.24
76352;BME280;65179;47.786;19.138;2023-04-03T09:49:02;100403.56;;;10.77;41.10
76352;BME280;65179;47.786;19.138;2023-04-03T09:51:30;100409.78;;;10.84;41.42
76352;BME280;65179;47.786;19.138;2023-04-03T09:53:58;100407.09;;;10.84;40.67
76352;BME280;65179;47.786;19.138;2023-04-03T09:56:29;100402.87;;;10.88;40.77
76352;BME280;65179;47.786;19.138;2023-04-03T10:01:32;100406.06;;;11.03;40.59
76352;BME280;65179;47.786;19.138;2023-04-03T10:06:45;100411.56;;;10.96;39.95
76352;BME280;65179;47.786;19.138;2023-04-03T10:09:31;100414.41;;;11.08;39.92
76352;BME280;65179;47.786;19.138;2023-04-03T10:12:05;100410.13;;;10.94;39.13
76352;BME280;65179;47.786;19.138;2023-04-03T10:14:40;100410.50;;;11.22;39.90
76352;BME280;65179;47.786;19.138;2023-04-03T10:20:03;100399.13;;;11.07;38.73
76352;BME280;65179;47.786;19.138;2023-04-03T10:22:45;100408.75;;;11.09;38.58
76352;BME280;65179;47.786;19.138;2023-04-03T10:25:35;100413.97;;;11.11;39.38
76352;BME280;65179;47.786;19.138;2023-04-03T10:28:18;100409.50;;;11.16;39.28
76352;BME280;65179;47.786;19.138;2023-04-03T10:42:03;100415.66;;;11.30;39.27
76352;BME280;65179;47.786;19.138;2023-04-03T10:44:47;100416.03;;;11.33;38.90
76352;BME280;65179;47.786;19.138;2023-04-03T10:47:26;100413.25;;;11.40;39.44
76352;BME280;65179;47.786;19.138;2023-04-03T10:53:08;100399.03;;;11.20;39.51
76352;BME280;65179;47.786;19.138;2023-04-03T10:58:33;100408.00;;;11.20;38.93
76352;BME280;65179;47.786;19.138;2023-04-03T11:01:09;100406.66;;;11.29;39.52
76352;BME280;65179;47.786;19.138;2023-04-03T11:03:49;100410.59;;;11.33;39.17
76352;BME280;65179;47.786;19.138;2023-04-03T11:06:19;100409.03;;;11.26;39.31
76352;BME280;65179;47.786;19.138;2023-04-03T11:08:53;100407.56;;;11.23;38.84
76352;BME280;65179;47.786;19.138;2023-04-03T11:11:31;100413.37;;;11.27;38.93
76352;BME280;65179;47.786;19.138;2023-04-03T11:14:09;100408.47;;;11.17;38.60
76352;BME280;65179;47.786;19.138;2023-04-03T11:16:42;100410.63;;;11.09;38.69
76352;BME280;65179;47.786;19.138;2023-04-03T11:19:17;100412.22;;;11.16;38.94
76352;BME280;65179;47.786;19.138;2023-04-03T11:25:15;100402.41;;;11.15;39.14
76352;BME280;65179;47.786;19.138;2023-04-03T11:27:46;100411.50;;;11.27;38.43
76352;BME280;65179;47.786;19.138;2023-04-03T11:35:33;100400.25;;;11.42;38.28
76352;BME280;65179;47.786;19.138;2023-04-03T11:38:02;100393.19;;;11.41;38.35
76352;BME280;65179;47.786;19.138;2023-04-03T11:40:33;100399.34;;;11.30;38.43
76352;BME280;65179;47.786;19.138;2023-04-03T11:47:55;100395.28;;;11.39;38.17
76352;BME280;65179;47.786;19.138;2023-04-03T11:50:38;100388.69;;;11.28;38.23
76352;BME280;65179;47.786;19.138;2023-04-03T12:05:49;100370.50;;;11.47;37.65
76352;BME280;65179;47.786;19.138;2023-04-03T12:16:22;100369.91;;;11.63;38.28
76352;BME280;65179;47.786;19.138;2023-04-03T12:21:14;100367.94;;;11.52;37.70
76352;BME280;65179;47.786;19.138;2023-04-03T12:24:23;100365.69;;;11.49;37.94
76352;BME280;65179;47.786;19.138;2023-04-03T12:29:33;100368.03;;;11.82;37.81
76352;BME280;65179;47.786;19.138;2023-04-03T12:45:43;100351.38;;;12.19;36.61
76352;BME280;65179;47.786;19.138;2023-04-03T12:48:25;100343.78;;;12.10;36.82
76352;BME280;65179;47.786;19.138;2023-04-03T12:50:51;100344.94;;;12.02;37.07
76352;BME280;65179;47.786;19.138;2023-04-03T12:53:28;100336.75;;;12.02;36.59
76352;BME280;65179;47.786;19.138;2023-04-03T12:58:48;100340.03;;;12.23;36.59
76352;BME280;65179;47.786;19.138;2023-04-03T13:01:18;100332.81;;;12.16;36.51
76352;BME280;65179;47.786;19.138;2023-04-03T13:03:53;100339.09;;;12.17;36.34
76352;BME280;65179;47.786;19.138;2023-04-03T13:06:26;100329.66;;;12.31;36.14
76352;BME280;65179;47.786;19.138;2023-04-03T13:08:55;100325.88;;;12.02;35.67
76352;BME280;65179;47.786;19.138;2023-04-03T13:11:50;100330.34;;;12.27;36.26
76352;BME280;65179;47.786;19.138;2023-04-03T13:14:24;100331.53;;;12.31;36.00
76352;BME280;65179;47.786;19.138;2023-04-03T13:16:59;100325.94;;;12.14;35.65
76352;BME280;65179;47.786;19.138;2023-04-03T13:19:27;100325.97;;;12.26;36.18
76352;BME280;65179;47.786;19.138;2023-04-03T13:24:49;100325.84;;;12.21;35.95
76352;BME280;65179;47.786;19.138;2023-04-03T13:27:17;100322.19;;;12.27;35.56
76352;BME280;65179;47.786;19.138;2023-04-03T13:29:50;100315.78;;;12.33;35.94
76352;BME280;65179;47.786;19.138;2023-04-03T13:32:23;100321.09;;;12.16;36.31
76352;BME280;65179;47.786;19.138;2023-04-03T13:34:51;100320.53;;;12.26;36.63
76352;BME280;65179;47.786;19.138;2023-04-03T13:37:26;100313.28;;;12.19;36.54
76352;BME280;65179;47.786;19.138;2023-04-03T13:40:19;100310.75;;;12.06;36.53
76352;BME280;65179;47.786;19.138;2023-04-03T13:42:46;100305.59;;;12.16;36.68
76352;BME280;65179;47.786;19.138;2023-04-03T13:45:32;100300.28;;;12.33;36.64
76352;BME280;65179;47.786;19.138;2023-04-03T13:48:20;100305.00;;;12.14;35.92
76352;BME280;65179;47.786;19.138;2023-04-03T13:51:15;100300.16;;;12.16;36.11
76352;BME280;65179;47.786;19.138;2023-04-03T13:53:58;100300.28;;;12.33;36.23
76352;BME280;65179;47.786;19.138;2023-04-03T13:56:36;100301.47;;;12.37;36.33
76352;BME280;65179;47.786;19.138;2023-04-03T13:59:20;100307.41;;;12.34;36.29
76352;BME280;65179;47.786;19.138;2023-04-03T14:07:11;100297.59;;;12.45;36.38
76352;BME280;65179;47.786;19.138;2023-04-03T14:09:38;100291.44;;;12.38;36.68
76352;BME280;65179;47.786;19.138;2023-04-03T14:12:08;100293.97;;;12.09;36.95
76352;BME280;65179;47.786;19.138;2023-04-03T14:14:36;100293.16;;;12.21;37.21
76352;BME280;65179;47.786;19.138;2023-04-03T14:17:20;100292.47;;;12.25;37.62
76352;BME280;65179;47.786;19.138;2023-04-03T14:19:47;100283.53;;;12.06;37.44
76352;BME280;65179;47.786;19.138;2023-04-03T14:22:32;100283.66;;;12.11;37.30
76352;BME280;65179;47.786;19.138;2023-04-03T14:25:00;100296.53;;;12.04;37.73
76352;BME280;65179;47.786;19.138;2023-04-03T14:27:34;100287.59;;;11.86;37.77
76352;BME280;65179;47.786;19.138;2023-04-03T14:30:00;100283.50;;;11.95;38.22
76352;BME280;65179;47.786;19.138;2023-04-03T14:32:28;100292.91;;;12.10;38.18
76352;BME280;65179;47.786;19.138;2023-04-03T14:34:54;100292.13;;;11.92;37.70
76352;BME280;65179;47.786;19.138;2023-04-03T14:37:26;100277.16;;;11.83;37.80
76352;BME280;65179;47.786;19.138;2023-04-03T14:39:53;100283.09;;;11.80;37.83
76352;BME280;65179;47.786;19.138;2023-04-03T14:42:25;100286.31;;;11.88;37.62